This is the latest recevied weather packets stored in our database for station/object IZ5MJO-13. If no packets are shown the sender has not sent any weather packets the latest 1 day(s).
| Time | Temp. | Humidity | Pressure | Rain* | Wind** | Luminosity | Snow |
|---|---|---|---|---|---|---|---|
| 1777788824 | 13.89° C | 55% | 1010.2 hPa | - | - | - | - |
| 1777787924 | 13.33° C | 55% | 1010.1 hPa | - | - | - | - |
| 1777787024 | 13.33° C | 55% | 1010.1 hPa | - | - | - | - |
| 1777786124 | 12.78° C | 50% | 1009.9 hPa | - | - | - | - |
| 1777785224 | 12.22° C | 48% | 1009.9 hPa | - | - | - | - |
| 1777784324 | 12.22° C | 46% | 1009.9 hPa | - | - | - | - |
| 1777783424 | 12.22° C | 51% | 1009.8 hPa | - | - | - | - |
| 1777782523 | 12.22° C | 51% | 1009.7 hPa | - | - | - | - |
| 1777781623 | 12.22° C | 49% | 1009.7 hPa | - | - | - | - |
| 1777780722 | 12.22° C | 50% | 1009.6 hPa | - | - | - | - |
| 1777779822 | 12.22° C | 43% | 1009.6 hPa | - | - | - | - |
| 1777778921 | 12.22° C | 48% | 1009.6 hPa | - | - | - | - |
| 1777778021 | 12.22° C | 47% | 1009.5 hPa | - | - | - | - |
| 1777777121 | 12.22° C | 45% | 1009.5 hPa | - | - | - | - |
| 1777776221 | 12.78° C | 46% | 1009.6 hPa | - | - | - | - |
| 1777775321 | 12.78° C | 44% | 1009.6 hPa | - | - | - | - |
| 1777774425 | 12.78° C | 45% | 1009.7 hPa | - | - | - | - |
| 1777773525 | 12.78° C | 40% | 1009.6 hPa | - | - | - | - |
| 1777772625 | 12.78° C | 41% | 1009.7 hPa | - | - | - | - |
| 1777771725 | 13.33° C | 41% | 1009.8 hPa | - | - | - | - |
| 1777770825 | 13.33° C | 42% | 1009.8 hPa | - | - | - | - |
| 1777769924 | 13.33° C | 39% | 1009.9 hPa | - | - | - | - |
| 1777769024 | 13.33° C | 36% | 1010 hPa | - | - | - | - |
| 1777768124 | 13.89° C | 38% | 1010.1 hPa | - | - | - | - |
| 1777767224 | 13.89° C | 37% | 1010.2 hPa | - | - | - | - |
* Rain since midnight (hover to see other rain measurements)
** Current wind speed in m/s (hover to see current wind gust speed)